createdAt,value
2018-11-05T00:00:40.931Z,28.52
2018-11-05T00:03:09.046Z,27.27
2018-11-05T00:05:37.178Z,29.05
2018-11-05T00:08:05.548Z,25.97
2018-11-05T00:10:33.668Z,28.15
2018-11-05T00:13:01.766Z,27.37
2018-11-05T00:15:29.891Z,31.00
2018-11-05T00:17:58.010Z,27.35
2018-11-05T00:20:26.123Z,27.98
2018-11-05T00:22:54.268Z,27.62
2018-11-05T00:25:22.352Z,26.50
2018-11-05T00:27:50.475Z,29.92
2018-11-05T00:30:18.581Z,28.57
2018-11-05T00:32:46.695Z,28.12
2018-11-05T00:35:14.830Z,29.35
2018-11-05T00:37:42.965Z,32.20
2018-11-05T00:40:14.273Z,31.62
2018-11-05T00:42:42.870Z,27.45
2018-11-05T00:45:11.848Z,27.73
2018-11-05T00:47:40.331Z,26.35
2018-11-05T00:50:10.235Z,25.80
2018-11-05T00:52:38.335Z,27.90
2018-11-05T00:55:06.899Z,27.50
2018-11-05T00:57:35.055Z,31.57
2018-11-05T01:00:03.173Z,28.42
2018-11-05T01:02:31.636Z,28.32
2018-11-05T01:05:00.043Z,25.82
2018-11-05T01:07:28.153Z,28.30
2018-11-05T01:09:56.274Z,28.92
2018-11-05T01:12:24.377Z,31.80
2018-11-05T01:14:52.597Z,32.93
2018-11-05T01:17:20.721Z,28.25
2018-11-05T01:19:48.834Z,28.57
2018-11-05T01:22:16.938Z,27.60
2018-11-05T01:24:45.034Z,27.90
2018-11-05T01:27:13.133Z,26.68
2018-11-05T01:29:41.237Z,28.42
2018-11-05T01:32:09.380Z,32.03
2018-11-05T01:34:37.501Z,27.45
2018-11-05T01:37:06.036Z,28.55
2018-11-05T01:39:34.170Z,27.65
2018-11-05T01:42:02.361Z,29.75
2018-11-05T01:44:30.491Z,31.27
2018-11-05T01:46:58.645Z,33.25
2018-11-05T01:49:26.810Z,29.35
2018-11-05T01:51:54.972Z,27.73
2018-11-05T01:54:23.122Z,30.20
2018-11-05T01:56:51.265Z,30.27
2018-11-05T01:59:19.410Z,34.63
2018-11-05T02:01:47.585Z,30.60
2018-11-05T02:04:15.739Z,29.92
2018-11-05T02:06:43.893Z,29.48
2018-11-05T02:09:12.047Z,31.40
2018-11-05T02:14:14.770Z,31.87
2018-11-05T02:16:42.923Z,30.50
2018-11-05T02:19:11.093Z,29.37
2018-11-05T02:21:39.282Z,29.80
2018-11-05T02:24:07.429Z,29.45
2018-11-05T02:26:35.725Z,27.77
2018-11-05T02:29:03.990Z,33.18
2018-11-05T02:31:32.147Z,28.98
2018-11-05T02:34:00.272Z,28.40
2018-11-05T02:36:28.628Z,29.27
2018-11-05T02:38:56.902Z,26.40
2018-11-05T02:41:25.018Z,28.73
2018-11-05T02:43:53.150Z,27.22
2018-11-05T02:46:21.272Z,26.70
2018-11-05T02:48:49.406Z,28.77
2018-11-05T02:51:24.197Z,28.65
2018-11-05T02:53:52.314Z,31.15
2018-11-05T02:56:20.432Z,28.40
2018-11-05T02:58:48.575Z,29.10
2018-11-05T03:01:16.688Z,28.65
2018-11-05T03:03:44.819Z,28.42
2018-11-05T03:06:12.942Z,28.70
2018-11-05T03:08:41.080Z,28.00
2018-11-05T03:11:09.185Z,26.73
2018-11-05T03:13:37.318Z,27.85
2018-11-05T03:16:06.205Z,28.42
2018-11-05T03:18:34.336Z,31.77
2018-11-05T03:21:02.536Z,30.43
2018-11-05T03:23:30.648Z,29.25
2018-11-05T03:25:58.776Z,29.57
2018-11-05T03:28:26.892Z,30.85
2018-11-05T03:30:55.014Z,29.50
2018-11-05T03:33:23.150Z,29.75
2018-11-05T03:35:51.348Z,26.68
2018-11-05T03:38:19.395Z,30.57
2018-11-05T03:40:47.513Z,29.67
2018-11-05T03:43:15.643Z,29.82
2018-11-05T03:45:43.786Z,29.02
2018-11-05T03:48:11.928Z,30.62
2018-11-05T03:50:40.044Z,26.80
2018-11-05T03:53:08.168Z,29.40
2018-11-05T03:55:36.343Z,28.52
2018-11-05T03:58:04.671Z,27.80
2018-11-05T04:00:32.798Z,30.57
2018-11-05T04:03:00.937Z,28.67
2018-11-05T04:05:29.061Z,25.45
2018-11-05T04:07:57.254Z,33.48
2018-11-05T04:10:25.409Z,36.15
2018-11-05T04:12:53.618Z,29.52
2018-11-05T04:15:21.888Z,27.80
2018-11-05T04:17:49.942Z,28.80
2018-11-05T04:20:18.104Z,30.95
2018-11-05T04:22:46.287Z,32.05
2018-11-05T04:25:14.473Z,29.85
2018-11-05T04:27:42.731Z,28.85
2018-11-05T04:30:12.946Z,29.65
2018-11-05T04:32:41.521Z,29.63
2018-11-05T04:35:10.216Z,30.95
2018-11-05T04:37:38.425Z,27.80
2018-11-05T04:40:07.585Z,34.05
2018-11-05T04:42:35.794Z,29.00
2018-11-05T04:45:04.694Z,28.43
2018-11-05T04:47:32.874Z,32.60
2018-11-05T04:50:01.147Z,28.15
2018-11-05T04:52:29.346Z,30.45
2018-11-05T04:54:57.553Z,31.87
2018-11-05T04:57:25.766Z,28.35
2018-11-05T04:59:53.970Z,26.70
2018-11-05T05:02:22.174Z,29.30
2018-11-05T05:04:50.365Z,30.93
2018-11-05T05:07:18.547Z,27.62
2018-11-05T05:09:46.742Z,29.77
2018-11-05T05:12:14.950Z,28.83
2018-11-05T05:14:43.145Z,26.27
2018-11-05T05:17:11.332Z,27.00
2018-11-05T05:19:39.525Z,27.58
2018-11-05T05:22:07.727Z,28.35
2018-11-05T05:24:35.932Z,29.00
2018-11-05T05:27:04.182Z,29.52
2018-11-05T05:29:32.389Z,27.10
2018-11-05T05:32:00.764Z,27.67
2018-11-05T05:34:28.913Z,25.17
2018-11-05T05:36:57.089Z,28.27
2018-11-05T05:39:25.265Z,28.42
2018-11-05T05:41:54.007Z,28.47
2018-11-05T05:44:23.289Z,28.83
2018-11-05T05:46:51.741Z,25.77
2018-11-05T05:49:20.027Z,34.45
2018-11-05T05:51:48.196Z,27.30
2018-11-05T05:54:16.509Z,27.48
2018-11-05T05:56:45.256Z,27.52
2018-11-05T05:59:13.769Z,25.95
2018-11-05T06:01:41.925Z,28.35
2018-11-05T06:04:10.172Z,26.77
2018-11-05T06:06:38.404Z,26.37
2018-11-05T06:09:08.218Z,25.27
2018-11-05T06:11:36.994Z,28.53
2018-11-05T06:14:05.601Z,27.10
2018-11-05T06:16:34.581Z,23.75
2018-11-05T06:19:03.152Z,26.00
2018-11-05T06:21:31.329Z,22.25
2018-11-05T06:23:59.509Z,28.67
2018-11-05T06:26:27.673Z,30.27
2018-11-05T06:31:35.717Z,25.63
2018-11-05T06:34:04.055Z,26.73
2018-11-05T06:36:32.223Z,27.55
2018-11-05T06:39:00.405Z,28.27
2018-11-05T06:41:28.715Z,27.15
2018-11-05T06:43:56.804Z,26.90
2018-11-05T06:46:24.937Z,25.00
2018-11-05T06:48:53.191Z,25.37
2018-11-05T06:51:21.324Z,26.20
2018-11-05T06:53:49.519Z,28.83
2018-11-05T06:56:17.696Z,28.50
2018-11-05T06:58:45.887Z,28.10
2018-11-05T07:01:14.057Z,26.70
2018-11-05T07:03:42.466Z,26.02
2018-11-05T07:06:10.643Z,25.57
2018-11-05T07:08:38.942Z,25.20
2018-11-05T07:11:07.118Z,25.75
2018-11-05T07:13:35.296Z,27.00
2018-11-05T07:16:03.476Z,28.30
2018-11-05T07:18:31.703Z,27.67
2018-11-05T07:20:59.833Z,29.63
2018-11-05T07:23:28.025Z,31.77
2018-11-05T07:25:56.200Z,27.53
2018-11-05T07:28:24.381Z,29.10
2018-11-05T07:30:52.616Z,22.73
2018-11-05T07:33:20.966Z,24.40
2018-11-05T07:35:49.027Z,26.40
2018-11-05T07:38:17.213Z,27.13
2018-11-05T07:40:45.443Z,26.95
2018-11-05T07:43:14.665Z,26.50
2018-11-05T07:45:42.841Z,23.50
2018-11-05T07:48:11.013Z,26.40
2018-11-05T07:50:39.260Z,28.70
2018-11-05T07:53:07.388Z,29.93
2018-11-05T07:55:35.594Z,29.37
2018-11-05T07:58:03.764Z,28.43
2018-11-05T08:00:37.364Z,26.97
2018-11-05T08:03:06.111Z,26.93
2018-11-05T08:05:34.276Z,25.93
2018-11-05T08:08:02.448Z,26.47
2018-11-05T08:10:30.637Z,24.70
2018-11-05T08:12:58.808Z,28.17
2018-11-05T08:15:26.987Z,30.00
2018-11-05T08:17:55.301Z,27.50
2018-11-05T08:20:23.469Z,26.67
2018-11-05T08:22:51.631Z,32.47
2018-11-05T08:25:19.810Z,32.27
2018-11-05T08:27:47.969Z,29.70
2018-11-05T08:30:18.122Z,27.27
2018-11-05T08:32:46.302Z,24.70
2018-11-05T08:35:14.881Z,27.97
2018-11-05T08:37:43.978Z,25.80
2018-11-05T08:40:15.502Z,31.70
2018-11-05T08:42:44.201Z,27.30
2018-11-05T08:45:13.415Z,25.83
2018-11-05T08:47:41.787Z,25.60
2018-11-05T08:50:12.008Z,26.43
2018-11-05T08:52:40.108Z,26.73
2018-11-05T08:55:10.713Z,24.90
2018-11-05T08:57:39.199Z,24.17
2018-11-05T09:00:15.253Z,27.00
2018-11-05T09:02:44.150Z,30.00
2018-11-05T09:05:12.666Z,25.40
2018-11-05T09:07:40.698Z,25.83
2018-11-05T09:10:09.015Z,24.23
2018-11-05T09:12:37.161Z,27.27
2018-11-05T09:15:06.634Z,30.30
2018-11-05T09:17:34.842Z,29.97
2018-11-05T09:20:03.172Z,25.23
2018-11-05T09:22:31.342Z,26.90
2018-11-05T09:24:59.510Z,20.30
2018-11-05T09:27:28.133Z,27.90
2018-11-05T09:29:56.299Z,26.10
2018-11-05T09:32:24.485Z,25.50
2018-11-05T09:34:52.658Z,27.07
2018-11-05T09:37:20.829Z,25.80
2018-11-05T09:39:48.984Z,26.30
2018-11-05T09:42:17.305Z,22.43
2018-11-05T09:44:45.665Z,30.13
2018-11-05T09:47:13.837Z,29.17
2018-11-05T09:49:42.040Z,28.00
2018-11-05T09:52:10.206Z,31.50
2018-11-05T09:54:38.388Z,26.90
2018-11-05T09:57:06.579Z,28.40
2018-11-05T09:59:34.744Z,26.90
2018-11-05T10:02:02.949Z,30.80
2018-11-05T10:04:31.412Z,28.57
2018-11-05T10:06:59.382Z,26.23
2018-11-05T10:09:27.613Z,22.10
2018-11-05T10:11:55.778Z,26.10
2018-11-05T10:14:23.978Z,22.73
2018-11-05T10:16:52.173Z,23.20
2018-11-05T10:19:20.389Z,23.50
2018-11-05T10:21:48.601Z,24.03
2018-11-05T10:24:16.930Z,26.40
2018-11-05T10:26:45.138Z,23.97
2018-11-05T10:29:13.336Z,26.70
2018-11-05T10:31:41.574Z,26.03
2018-11-05T10:34:09.770Z,26.20
2018-11-05T10:36:38.033Z,25.13
2018-11-05T10:39:08.057Z,24.00
2018-11-05T10:41:36.280Z,24.93
2018-11-05T10:44:05.156Z,28.90
2018-11-05T10:46:33.389Z,24.23
2018-11-05T10:49:01.673Z,27.03
2018-11-05T10:51:30.403Z,25.57
2018-11-05T10:54:05.044Z,23.93
2018-11-05T10:56:33.297Z,22.10
2018-11-05T10:59:01.501Z,26.33
2018-11-05T11:01:35.214Z,22.47
2018-11-05T11:04:09.039Z,24.27
2018-11-05T11:06:37.060Z,23.70
2018-11-05T11:09:07.625Z,26.03
2018-11-05T11:11:36.040Z,21.50
2018-11-05T11:14:04.285Z,27.47
2018-11-05T11:16:32.493Z,22.77
2018-11-05T11:19:00.662Z,21.90
2018-11-05T11:21:28.838Z,25.87
2018-11-05T11:23:57.013Z,22.37
2018-11-05T11:26:25.197Z,24.70
2018-11-05T11:28:53.475Z,23.10
2018-11-05T11:31:21.597Z,21.83
2018-11-05T11:33:49.757Z,21.53
2018-11-05T11:36:18.032Z,21.17
2018-11-05T11:38:46.142Z,20.83
2018-11-05T11:41:14.314Z,21.67
2018-11-05T11:43:42.498Z,22.73
2018-11-05T11:46:10.675Z,25.20
2018-11-05T11:48:38.842Z,21.23
2018-11-05T11:51:07.036Z,22.70
2018-11-05T11:53:35.280Z,24.60
2018-11-05T11:56:03.383Z,21.97
2018-11-05T11:58:31.625Z,23.73
2018-11-05T12:00:59.812Z,22.90
2018-11-05T12:03:28.010Z,20.93
2018-11-05T12:05:56.221Z,24.10
2018-11-05T12:08:24.421Z,20.43
2018-11-05T12:10:53.499Z,23.13
2018-11-05T12:13:21.798Z,20.30
2018-11-05T12:15:50.058Z,20.37
2018-11-05T12:18:18.286Z,14.30
2018-11-05T12:20:46.490Z,22.40
2018-11-05T12:23:14.734Z,20.73
2018-11-05T12:25:42.928Z,23.53
2018-11-05T12:28:11.130Z,24.70
2018-11-05T12:30:39.349Z,21.07
2018-11-05T12:33:07.545Z,26.83
2018-11-05T12:35:35.780Z,24.03
2018-11-05T12:38:04.381Z,25.27
2018-11-05T12:40:32.581Z,21.60
2018-11-05T12:43:00.856Z,21.77
2018-11-05T12:45:29.054Z,23.27
2018-11-05T12:47:57.269Z,24.80
2018-11-05T12:50:25.475Z,22.20
2018-11-05T12:52:54.771Z,22.00
2018-11-05T12:55:23.003Z,22.57
2018-11-05T12:57:51.259Z,25.03
2018-11-05T13:00:21.245Z,23.07
2018-11-05T13:02:55.473Z,21.70
2018-11-05T13:05:24.661Z,22.53
2018-11-05T13:07:53.033Z,23.77
2018-11-05T13:10:21.413Z,19.47
2018-11-05T13:12:49.814Z,23.93
2018-11-05T13:15:18.040Z,20.83
2018-11-05T13:17:46.200Z,26.23
2018-11-05T13:20:15.715Z,24.00
2018-11-05T13:22:44.177Z,23.37
2018-11-05T13:25:12.623Z,20.93
2018-11-05T13:27:42.125Z,25.07
2018-11-05T13:30:11.105Z,22.17
2018-11-05T13:32:39.702Z,27.13
2018-11-05T13:35:09.570Z,22.20
2018-11-05T13:37:38.204Z,17.93
2018-11-05T13:40:07.488Z,20.33
2018-11-05T13:42:35.750Z,26.23
2018-11-05T13:45:03.982Z,25.27
2018-11-05T13:47:32.674Z,24.43
2018-11-05T13:50:00.657Z,21.90
2018-11-05T13:52:28.712Z,29.07
2018-11-05T13:54:57.111Z,23.83
2018-11-05T13:57:25.015Z,20.83
2018-11-05T13:59:53.217Z,25.10
2018-11-05T14:02:21.505Z,24.37
2018-11-05T14:04:49.703Z,27.73
2018-11-05T14:07:17.881Z,23.03
2018-11-05T14:09:46.084Z,22.63
2018-11-05T14:12:14.240Z,23.80
2018-11-05T14:14:42.401Z,26.77
2018-11-05T14:17:10.572Z,22.23
2018-11-05T14:19:38.750Z,23.87
2018-11-05T14:22:06.987Z,25.00
2018-11-05T14:24:35.161Z,27.47
2018-11-05T14:27:03.336Z,29.00
2018-11-05T14:29:31.738Z,25.77
2018-11-05T14:31:59.704Z,25.53
2018-11-05T14:34:27.890Z,27.53
2018-11-05T14:36:56.184Z,27.20
2018-11-05T14:39:24.248Z,26.43
2018-11-05T14:41:52.401Z,11.80
2018-11-05T14:44:20.568Z,24.77
2018-11-05T14:46:48.772Z,24.50
2018-11-05T14:49:16.937Z,24.60
2018-11-05T14:51:45.198Z,26.20
2018-11-05T14:54:13.364Z,28.47
2018-11-05T14:56:41.531Z,26.17
2018-11-05T14:59:09.729Z,27.80
2018-11-05T15:01:37.923Z,25.50
2018-11-05T15:04:06.310Z,18.50
2018-11-05T15:06:34.502Z,23.20
2018-11-05T15:09:02.766Z,28.77
2018-11-05T15:11:31.007Z,24.50
2018-11-05T15:13:59.201Z,25.10
2018-11-05T15:16:27.410Z,27.30
2018-11-05T15:18:55.806Z,27.47
2018-11-05T15:21:23.914Z,29.63
2018-11-05T15:23:52.088Z,25.60
2018-11-05T15:26:20.272Z,30.70
2018-11-05T15:28:48.473Z,25.60
2018-11-05T15:31:16.674Z,31.43
2018-11-05T15:33:44.931Z,28.03
2018-11-05T15:36:13.042Z,26.23
2018-11-05T15:38:41.273Z,27.23
2018-11-05T15:41:09.454Z,26.13
2018-11-05T15:43:37.641Z,29.07
2018-11-05T15:46:06.460Z,29.63
2018-11-05T15:48:34.645Z,29.67
2018-11-05T15:51:02.882Z,31.27
2018-11-05T15:53:31.507Z,25.73
2018-11-05T15:55:59.221Z,29.17
2018-11-05T15:58:27.456Z,26.93
2018-11-05T16:00:55.773Z,39.30
2018-11-05T16:03:23.969Z,32.80
2018-11-05T16:05:52.289Z,31.90
2018-11-05T16:08:20.486Z,30.63
2018-11-05T16:10:48.683Z,31.70
2018-11-05T16:13:16.861Z,28.70
2018-11-05T16:15:45.054Z,26.57
2018-11-05T16:18:13.236Z,30.93
2018-11-05T16:20:41.433Z,28.27
2018-11-05T16:23:09.622Z,33.20
2018-11-05T16:25:37.877Z,35.13
2018-11-05T16:28:06.391Z,49.67
2018-11-05T16:30:34.620Z,30.67
2018-11-05T16:33:02.792Z,35.90
2018-11-05T16:35:31.060Z,32.13
2018-11-05T16:37:59.177Z,30.03
2018-11-05T16:40:27.372Z,33.40
2018-11-05T16:42:55.588Z,31.90
2018-11-05T16:45:23.916Z,35.10
2018-11-05T16:47:52.095Z,31.27
2018-11-05T16:50:23.325Z,31.73
2018-11-05T16:52:51.498Z,31.63
2018-11-05T16:55:19.728Z,34.17
2018-11-05T16:57:47.942Z,32.43
2018-11-05T17:00:16.389Z,32.37
2018-11-05T17:02:45.288Z,32.03
2018-11-05T17:05:13.358Z,31.77
2018-11-05T17:07:41.508Z,28.70
2018-11-05T17:10:10.777Z,30.87
2018-11-05T17:12:38.954Z,34.50
2018-11-05T17:15:08.608Z,28.50
2018-11-05T17:17:37.080Z,31.13
2018-11-05T17:20:07.186Z,30.73
2018-11-05T17:22:35.337Z,32.37
2018-11-05T17:25:03.497Z,29.93
2018-11-05T17:27:31.649Z,29.47
2018-11-05T17:29:59.810Z,33.23
2018-11-05T17:32:27.997Z,43.50
2018-11-05T17:34:56.160Z,28.30
2018-11-05T17:37:24.313Z,32.00
2018-11-05T17:39:52.479Z,42.20
2018-11-05T17:42:20.638Z,48.50
2018-11-05T17:44:48.863Z,38.13
2018-11-05T17:47:17.001Z,32.50
2018-11-05T17:49:45.159Z,33.87
2018-11-05T17:52:13.353Z,32.43
2018-11-05T17:54:41.519Z,35.80
2018-11-05T17:57:09.674Z,35.80
2018-11-05T17:59:37.831Z,36.50
2018-11-05T18:02:06.007Z,34.90
2018-11-05T18:04:34.210Z,36.00
2018-11-05T18:07:02.322Z,36.43
2018-11-05T18:09:30.651Z,33.27
2018-11-05T18:11:58.713Z,35.67
2018-11-05T18:14:26.889Z,36.67
2018-11-05T18:16:55.041Z,40.33
2018-11-05T18:19:23.196Z,41.60
2018-11-05T18:21:51.421Z,38.63
2018-11-05T18:24:19.646Z,36.43
2018-11-05T18:26:47.747Z,37.03
2018-11-05T18:29:15.876Z,44.10
2018-11-05T18:31:44.106Z,37.70
2018-11-05T18:34:12.658Z,39.03
2018-11-05T18:36:40.831Z,46.97
2018-11-05T18:39:10.153Z,47.67
2018-11-05T18:41:38.613Z,77.20
2018-11-05T18:44:06.883Z,38.90
2018-11-05T18:46:35.346Z,41.10
2018-11-05T18:49:03.569Z,103.27
2018-11-05T18:51:31.793Z,39.10
2018-11-05T18:53:59.952Z,38.30
2018-11-05T18:56:28.173Z,35.47
2018-11-05T18:58:56.385Z,35.80
2018-11-05T19:01:24.570Z,37.53
2018-11-05T19:03:52.827Z,35.20
2018-11-05T19:06:20.976Z,36.27
2018-11-05T19:08:49.150Z,39.47
2018-11-05T19:11:17.387Z,36.83
2018-11-05T19:13:45.573Z,31.90
2018-11-05T19:16:13.752Z,32.00
2018-11-05T19:18:41.942Z,37.70
2018-11-05T19:21:10.134Z,36.50
2018-11-05T19:23:38.409Z,37.40
2018-11-05T19:26:06.554Z,36.50
2018-11-05T19:28:34.886Z,37.13
2018-11-05T19:31:02.945Z,37.53
2018-11-05T19:33:31.309Z,35.93
2018-11-05T19:36:02.086Z,41.10
2018-11-05T19:38:30.296Z,37.87
2018-11-05T19:40:58.476Z,38.77
2018-11-05T19:43:26.682Z,36.87
2018-11-05T19:45:54.969Z,41.50
2018-11-05T19:48:23.144Z,41.37
2018-11-05T19:50:51.340Z,43.10
2018-11-05T19:53:19.776Z,40.03
2018-11-05T19:55:47.946Z,35.60
2018-11-05T19:58:16.134Z,39.83
2018-11-05T20:00:44.354Z,39.87
2018-11-05T20:03:12.453Z,42.50
2018-11-05T20:05:40.682Z,40.97
2018-11-05T20:08:08.821Z,40.07
2018-11-05T20:10:37.022Z,45.17
2018-11-05T20:13:05.150Z,41.67
2018-11-05T20:15:33.393Z,41.63
2018-11-05T20:18:01.481Z,40.37
2018-11-05T20:20:29.650Z,41.30
2018-11-05T20:22:57.910Z,42.40
2018-11-05T20:25:25.980Z,43.80
2018-11-05T20:27:54.136Z,41.43
2018-11-05T20:30:23.605Z,43.07
2018-11-05T20:32:53.214Z,37.17
2018-11-05T20:35:20.997Z,41.30
2018-11-05T20:37:49.400Z,44.83
2018-11-05T20:40:18.716Z,37.57
2018-11-05T20:42:47.862Z,43.07
2018-11-05T20:45:16.913Z,39.43
2018-11-05T20:47:45.120Z,40.50
2018-11-05T20:50:14.217Z,37.30
2018-11-05T20:52:42.390Z,39.97
2018-11-05T20:55:11.906Z,46.57
2018-11-05T20:57:40.585Z,39.03
2018-11-05T21:00:10.236Z,41.03
2018-11-05T21:02:38.789Z,40.77
2018-11-05T21:05:07.009Z,37.03
2018-11-05T21:07:35.198Z,36.40
2018-11-05T21:10:04.027Z,40.57
2018-11-05T21:12:32.204Z,39.80
2018-11-05T21:15:00.584Z,43.00
2018-11-05T21:17:28.772Z,43.00
2018-11-05T21:19:56.984Z,40.53
2018-11-05T21:22:25.325Z,41.50
2018-11-05T21:24:53.405Z,50.60
2018-11-05T21:27:21.597Z,40.03
2018-11-05T21:29:49.869Z,38.83
2018-11-05T21:32:18.044Z,43.20
2018-11-05T21:34:46.237Z,40.03
2018-11-05T21:37:14.469Z,37.87
2018-11-05T21:39:42.669Z,38.80
2018-11-05T21:42:10.867Z,43.10
2018-11-05T21:44:39.056Z,38.77
2018-11-05T21:47:07.266Z,44.83
2018-11-05T21:49:35.498Z,38.50
2018-11-05T21:52:03.673Z,47.57
2018-11-05T21:54:31.940Z,41.23
2018-11-05T21:57:00.041Z,42.93
2018-11-05T21:59:28.229Z,42.73
2018-11-05T22:01:56.420Z,38.10
2018-11-05T22:04:24.610Z,39.80
2018-11-05T22:06:52.810Z,40.37
2018-11-05T22:09:21.013Z,37.47
2018-11-05T22:11:49.193Z,45.90
2018-11-05T22:14:17.377Z,41.43
2018-11-05T22:16:45.566Z,51.27
2018-11-05T22:19:13.762Z,48.03
2018-11-05T22:21:41.937Z,45.17
2018-11-05T22:24:10.124Z,40.20
2018-11-05T22:26:38.330Z,43.00
2018-11-05T22:29:06.520Z,39.47
2018-11-05T22:31:34.725Z,39.40
2018-11-05T22:34:02.925Z,41.60
2018-11-05T22:36:31.105Z,43.00
2018-11-05T22:38:59.294Z,39.97
2018-11-05T22:41:27.481Z,43.90
2018-11-05T22:43:55.681Z,42.30
2018-11-05T22:46:23.857Z,44.13
2018-11-05T22:48:52.029Z,43.73
2018-11-05T22:51:20.204Z,42.70
2018-11-05T22:53:48.401Z,39.27
2018-11-05T22:56:16.577Z,43.10
2018-11-05T22:58:44.774Z,38.73
2018-11-05T23:01:18.333Z,41.40
2018-11-05T23:03:46.497Z,38.57
2018-11-05T23:06:14.648Z,44.17
2018-11-05T23:08:42.829Z,44.87
2018-11-05T23:11:10.971Z,43.10
2018-11-05T23:13:39.167Z,40.77
2018-11-05T23:16:07.306Z,41.00
2018-11-05T23:18:35.497Z,39.70
2018-11-05T23:21:03.662Z,42.37
2018-11-05T23:23:31.817Z,39.47
2018-11-05T23:25:59.969Z,35.47
2018-11-05T23:28:28.158Z,38.70
2018-11-05T23:30:56.305Z,42.70
2018-11-05T23:33:24.530Z,39.17
2018-11-05T23:35:52.622Z,38.10
2018-11-05T23:38:20.801Z,41.93
2018-11-05T23:40:48.972Z,38.43
2018-11-05T23:43:17.094Z,37.87
2018-11-05T23:45:45.290Z,39.90
2018-11-05T23:48:13.501Z,44.10
2018-11-05T23:50:41.687Z,40.33
2018-11-05T23:53:09.905Z,40.80
2018-11-05T23:55:38.101Z,40.40
2018-11-05T23:58:06.424Z,48.10
